Hlavní strana
METAR-TAF:

METAR-TAF

Letiště :

Volgograd, Rusko

zeměpisná šířka: 48-47N, zeměpisná délka: 044-22E, výška: 145 m

Aktuální stav počasí

Zpráva byla vytvořena před 36 minutami, v 09:30 UTC
Východní vítr 14 kt
Teplota -8°C
Vlhkost vzduchu 92%
Tlak 1035 hPa
Viditelnost: 3900 m
Zataženo ve výšce 400 ft
(slabý) sněhová zrna, kouřmo

METAR: URWW 190930Z 08007MPS 3900 -SG BR OVC004 M08/M09 Q1035 R06/620240 TEMPO 0500 -FZDZ FZFG OVC002 RMK OBST OBSC

Čas: 13:06 (10:06 UTC)

Předpověď počasí

Zpráva byla vytvořena před 2 hodinami a 6 minutami, v 08:00 UTC
Předpověď platná od 19 v 09 UTC do 19 v 18 UTC
Východoseverovýchodní vítr 12 kt s nárazy do 21 kt
Viditelnost: 3100 m
Zataženo ve výšce 400 ft
kouřmo
Dočasný
od 19 v 09 UTC do 19 v 15 UTC
Východní vítr 10 kt s nárazy do 19 kt
Viditelnost: 0400 m
Zataženo ve výšce 200 ft
(slabý) mrznoucí, mrholení, mrznoucí mlha

TAF: URWW 190800Z 1909/1918 07006G11MPS 3100 BR OVC004 TEMPO 1909/1915 09005G10MPS 0400 -FZDZ FZFG OVC002

Stav a předpovědi počasí z více než 4 000 letišť (zprávy METAR a TAF).

Červené a žluté tečky na mapě představují dostupné meteorologické stanice.

Když kurzor umístíte na tečku, zobrazí se název stanice.

Pak kliknutím zobrazíte stav a předpověď počasí.

Chcete-li změnit mapu, kliknutím na zelené tlačítko se znaménkem +mapu přiblížíte, kliknutím na zelené tlačítko se znaménkem – mapu oddálíte a kliknutím na zelené šipky přejdete na sousední mapy.


METAR-TAF: